Time;durP1;ratioP1;P1;durP2;ratioP2;P2;SDS_P1;SDS_P2;PMS_P1;PMS_P2;Temp;Humidity;BMP_temperature;BMP_pressure;BME280_temperature;BME280_humidity;BME280_pressure;Samples;Min_cycle;Max_cycle;Signal;HPM_P1;HPM_P2
2022/03/13 00:00:39;;;;;;;7.97;4.60;;;;;;;;;;5020671;28;20473;-81
2022/03/13 00:03:09;;;;;;;10.75;4.90;;;;;;;;;;5021182;28;20032;-80
2022/03/13 00:05:36;;;;;;;9.90;4.90;;;;;;;;;;5020501;28;20025;-80
2022/03/13 00:08:02;;;;;;;9.60;4.63;;;;;;;;;;4996948;28;20466;-80
2022/03/13 00:10:27;;;;;;;10.68;4.50;;;;;;;;;;5000423;28;20057;-81
2022/03/13 00:12:54;;;;;;;12.43;4.75;;;;;;;;;;5011422;28;20029;-81
2022/03/13 00:15:22;;;;;;;8.90;4.35;;;;;;;;;;4999027;28;20065;-80
2022/03/13 00:17:49;;;;;;;10.63;4.47;;;;;;;;;;5020106;28;20022;-80
2022/03/13 00:20:14;;;;;;;9.88;4.30;;;;;;;;;;5024128;28;20032;-81
2022/03/13 00:22:40;;;;;;;9.68;4.53;;;;;;;;;;5016807;28;20021;-80
2022/03/13 00:25:10;;;;;;;8.82;4.50;;;;;;;;;;4997521;28;20030;-79
2022/03/13 00:27:36;;;;;;;12.48;4.95;;;;;;;;;;5015065;28;20026;-79
2022/03/13 00:30:03;;;;;;;9.38;4.75;;;;;;;;;;4997268;28;20080;-79
2022/03/13 00:32:28;;;;;;;13.10;4.97;;;;;;;;;;5002160;28;20034;-79
2022/03/13 00:34:53;;;;;;;10.45;4.95;;;;;;;;;;5018422;28;20096;-79
2022/03/13 00:37:19;;;;;;;14.10;5.35;;;;;;;;;;5020208;28;20018;-79
2022/03/13 00:39:46;;;;;;;9.75;4.22;;;;;;;;;;5019539;28;20504;-80
2022/03/13 00:42:12;;;;;;;9.73;4.85;;;;;;;;;;5423931;23;20029;-81
2022/03/13 00:44:38;;;;;;;8.80;4.10;;;;;;;;;;5013857;28;20110;-83
2022/03/13 00:47:05;;;;;;;11.15;4.78;;;;;;;;;;5015880;28;20536;-83
2022/03/13 00:49:30;;;;;;;10.77;4.32;;;;;;;;;;5015684;28;20018;-82
2022/03/13 01:17:51;;;;;;;9.32;4.07;;;;;;;;;;5800909;23;20030;-84
2022/03/13 01:20:21;;;;;;;10.38;4.88;;;;;;;;;;5017132;28;20069;-85
2022/03/13 01:22:47;;;;;;;10.85;4.97;;;;;;;;;;5014157;28;20027;-84
2022/03/13 01:25:13;;;;;;;8.93;4.38;;;;;;;;;;5014811;28;20017;-83
2022/03/13 01:27:40;;;;;;;10.98;4.63;;;;;;;;;;5001310;28;20474;-83
2022/03/13 01:30:09;;;;;;;10.57;4.47;;;;;;;;;;5226050;23;20036;-85
2022/03/13 01:32:35;;;;;;;11.68;4.72;;;;;;;;;;5063039;28;20024;-81
2022/03/13 01:35:07;;;;;;;10.85;4.50;;;;;;;;;;5075001;28;20052;-84
2022/03/13 01:37:37;;;;;;;9.50;4.25;;;;;;;;;;5056616;28;20044;-85
2022/03/13 01:40:06;;;;;;;9.52;4.55;;;;;;;;;;5068480;28;20033;-83
2022/03/13 01:45:17;;;;;;;10.70;4.57;;;;;;;;;;5548405;22;19906;-84
2022/03/13 01:47:47;;;;;;;9.48;4.50;;;;;;;;;;5020726;28;20037;-84
2022/03/13 01:50:18;;;;;;;10.45;4.03;;;;;;;;;;5033559;28;20015;-84
2022/03/13 01:55:21;;;;;;;9.52;4.43;;;;;;;;;;6082165;23;20017;-83
2022/03/13 01:57:47;;;;;;;11.40;4.40;;;;;;;;;;5099700;28;20021;-84
2022/03/13 02:26:07;;;;;;;10.70;4.45;;;;;;;;;;5108668;23;20103;-84
2022/03/13 02:28:42;;;;;;;14.73;4.63;;;;;;;;;;5057295;28;20021;-84
2022/03/13 02:31:18;;;;;;;10.38;4.38;;;;;;;;;;5047748;28;20010;-84
2022/03/13 02:46:48;;;;;;;8.85;4.30;;;;;;;;;;5664978;22;20118;-83
2022/03/13 03:35:44;;;;;;;9.80;4.13;;;;;;;;;;6022584;23;20021;-80
2022/03/13 03:40:45;;;;;;;11.45;5.22;;;;;;;;;;5775565;23;20062;-83
2022/03/13 03:43:10;;;;;;;15.45;4.88;;;;;;;;;;5054220;28;20085;-83
2022/03/13 04:03:41;;;;;;;30.48;11.77;;;;;;;;;;5155643;22;20046;-85
2022/03/13 04:06:09;;;;;;;14.23;4.97;;;;;;;;;;5018237;28;20085;-84
2022/03/13 04:08:34;;;;;;;11.88;4.78;;;;;;;;;;5022446;28;20016;-84
2022/03/13 04:11:00;;;;;;;8.10;4.25;;;;;;;;;;5010701;28;20031;-84
2022/03/13 04:13:33;;;;;;;13.93;4.47;;;;;;;;;;5042852;28;20047;-83
2022/03/13 04:23:46;;;;;;;8.75;4.20;;;;;;;;;;5490277;23;20059;-85
2022/03/13 04:26:12;;;;;;;8.88;4.53;;;;;;;;;;5099545;28;20047;-84
2022/03/13 04:28:39;;;;;;;9.07;4.70;;;;;;;;;;5082292;28;20096;-84
2022/03/13 04:33:40;;;;;;;12.83;5.40;;;;;;;;;;5788338;22;20034;-84
2022/03/13 04:36:12;;;;;;;12.83;6.00;;;;;;;;;;5434699;23;20013;-84
2022/03/13 04:38:38;;;;;;;10.53;5.07;;;;;;;;;;5018756;28;20038;-84
2022/03/13 04:41:03;;;;;;;10.67;4.43;;;;;;;;;;5019648;28;20063;-83
2022/03/13 04:43:28;;;;;;;8.02;3.80;;;;;;;;;;5019914;28;20009;-84
2022/03/13 04:45:57;;;;;;;10.40;4.78;;;;;;;;;;5019948;28;20033;-83
2022/03/13 04:48:22;;;;;;;10.75;4.13;;;;;;;;;;5051784;28;20023;-85
2022/03/13 05:25:01;;;;;;;10.10;4.30;;;;;;;;;;5055809;22;20066;-85
2022/03/13 05:27:26;;;;;;;10.33;4.10;;;;;;;;;;5775533;23;20154;-82
2022/03/13 05:29:52;;;;;;;12.03;4.87;;;;;;;;;;5019106;28;20011;-85
2022/03/13 05:32:20;;;;;;;10.83;3.80;;;;;;;;;;5029903;28;20035;-84
2022/03/13 05:34:47;;;;;;;11.15;4.78;;;;;;;;;;4997138;28;20006;-84
2022/03/13 05:37:13;;;;;;;11.53;4.70;;;;;;;;;;4998190;28;20034;-83
2022/03/13 05:44:46;;;;;;;8.03;3.93;;;;;;;;;;5010703;28;20141;-83
2022/03/13 05:47:11;;;;;;;9.00;4.13;;;;;;;;;;5013365;28;20032;-83
2022/03/13 05:49:39;;;;;;;8.97;4.43;;;;;;;;;;5025338;28;20056;-82
2022/03/13 05:52:04;;;;;;;14.70;4.47;;;;;;;;;;5018580;28;20030;-82
2022/03/13 05:54:30;;;;;;;7.43;4.00;;;;;;;;;;5013707;28;20049;-82
2022/03/13 05:57:03;;;;;;;7.20;3.97;;;;;;;;;;4998443;28;20022;-82
2022/03/13 05:59:29;;;;;;;9.37;4.10;;;;;;;;;;5027377;28;20022;-83
2022/03/13 06:12:15;;;;;;;9.97;4.40;;;;;;;;;;5667040;22;20033;-84
2022/03/13 06:14:41;;;;;;;9.80;4.27;;;;;;;;;;5020978;28;20017;-84
2022/03/13 06:17:06;;;;;;;8.77;3.93;;;;;;;;;;5020242;28;20061;-83
2022/03/13 06:19:32;;;;;;;10.43;4.03;;;;;;;;;;5019844;28;20029;-84
2022/03/13 06:22:00;;;;;;;8.50;3.70;;;;;;;;;;5101871;23;20095;-83
2022/03/13 06:27:03;;;;;;;10.63;3.80;;;;;;;;;;5556753;23;20042;-84
2022/03/13 06:39:48;;;;;;;8.83;4.13;;;;;;;;;;5204013;23;20057;-82
2022/03/13 07:02:49;;;;;;;9.25;4.22;;;;;;;;;;5281468;23;20056;-84
2022/03/13 07:05:14;;;;;;;10.05;4.60;;;;;;;;;;5024142;28;20045;-85
2022/03/13 07:12:50;;;;;;;8.00;3.30;;;;;;;;;;5352048;23;20425;-78
2022/03/13 07:15:18;;;;;;;9.27;3.67;;;;;;;;;;4993028;28;20022;-78
2022/03/13 07:17:44;;;;;;;11.43;3.85;;;;;;;;;;5012417;28;20540;-78
2022/03/13 07:20:09;;;;;;;12.70;4.45;;;;;;;;;;5013490;28;20034;-77
2022/03/13 07:22:34;;;;;;;8.75;3.55;;;;;;;;;;4998385;28;20508;-77
2022/03/13 07:24:59;;;;;;;7.38;4.13;;;;;;;;;;5024032;28;20431;-78
2022/03/13 07:27:24;;;;;;;10.15;4.57;;;;;;;;;;5025496;28;20042;-79
2022/03/13 07:29:51;;;;;;;9.20;4.43;;;;;;;;;;5033171;28;20034;-79
2022/03/13 07:32:16;;;;;;;9.65;4.32;;;;;;;;;;5036822;28;20017;-78
2022/03/13 07:34:42;;;;;;;11.02;4.50;;;;;;;;;;5028591;28;20033;-80
2022/03/13 07:37:10;;;;;;;10.90;4.30;;;;;;;;;;5019908;28;20079;-79
2022/03/13 07:39:35;;;;;;;7.68;3.67;;;;;;;;;;5034723;28;20017;-79
2022/03/13 07:42:00;;;;;;;11.95;3.97;;;;;;;;;;5018688;28;20087;-78
2022/03/13 07:44:25;;;;;;;10.75;4.38;;;;;;;;;;5021321;28;20500;-79
2022/03/13 07:46:51;;;;;;;9.30;4.18;;;;;;;;;;5016572;28;20485;-80
2022/03/13 07:49:16;;;;;;;8.30;4.05;;;;;;;;;;5028226;28;20116;-81
2022/03/13 07:51:43;;;;;;;12.68;4.15;;;;;;;;;;5020013;28;20022;-78
2022/03/13 07:54:13;;;;;;;8.68;4.30;;;;;;;;;;5033149;28;20093;-83
2022/03/13 07:56:38;;;;;;;11.45;4.18;;;;;;;;;;5073284;23;20037;-80
2022/03/13 08:01:38;;;;;;;10.30;3.80;;;;;;;;;;5180927;23;20058;-83
2022/03/13 08:04:06;;;;;;;8.93;4.10;;;;;;;;;;5018772;28;20026;-83
2022/03/13 08:06:35;;;;;;;11.38;4.90;;;;;;;;;;5036120;28;20048;-84
2022/03/13 08:09:04;;;;;;;8.55;4.20;;;;;;;;;;5000544;28;20092;-83
2022/03/13 08:11:29;;;;;;;;;;;;;;;;;;5016423;28;20032;-83
2022/03/13 08:13:55;;;;;;;8.27;3.90;;;;;;;;;;5011452;28;19906;-83
2022/03/13 08:16:22;;;;;;;12.32;4.57;;;;;;;;;;5013432;28;20090;-83
2022/03/13 08:18:48;;;;;;;11.50;6.05;;;;;;;;;;5015286;28;19994;-83
2022/03/13 08:21:13;;;;;;;10.27;5.22;;;;;;;;;;5010275;28;20002;-82
2022/03/13 08:23:45;;;;;;;10.05;4.68;;;;;;;;;;5036736;28;20006;-84
2022/03/13 08:26:11;;;;;;;10.80;4.70;;;;;;;;;;4981322;28;20030;-84
2022/03/13 08:28:37;;;;;;;10.43;4.47;;;;;;;;;;5030466;28;20009;-84
2022/03/13 08:31:03;;;;;;;9.88;4.68;;;;;;;;;;5025518;28;20050;-83
2022/03/13 08:33:29;;;;;;;7.38;3.97;;;;;;;;;;5000835;28;20022;-84
2022/03/13 08:35:54;;;;;;;12.68;4.57;;;;;;;;;;5000775;28;20006;-84
2022/03/13 08:38:19;;;;;;;9.10;4.15;;;;;;;;;;5018544;28;20022;-84
2022/03/13 08:40:46;;;;;;;10.77;4.40;;;;;;;;;;5017774;28;20053;-83
2022/03/13 08:43:11;;;;;;;8.40;4.03;;;;;;;;;;5019041;28;20022;-84
2022/03/13 08:45:37;;;;;;;10.40;4.72;;;;;;;;;;5022202;28;20032;-82
2022/03/13 08:48:02;;;;;;;9.02;4.57;;;;;;;;;;5027833;28;20054;-83
2022/03/13 08:50:32;;;;;;;8.60;4.57;;;;;;;;;;5032732;28;20013;-83
2022/03/13 08:52:58;;;;;;;10.32;4.70;;;;;;;;;;5006496;28;20081;-83
2022/03/13 08:55:23;;;;;;;8.40;4.65;;;;;;;;;;5008966;28;20508;-83
2022/03/13 08:57:49;;;;;;;7.93;3.85;;;;;;;;;;5020121;28;20013;-84
2022/03/13 09:00:15;;;;;;;9.18;4.25;;;;;;;;;;5012359;28;20026;-85
2022/03/13 09:02:41;;;;;;;10.57;5.03;;;;;;;;;;5009807;28;20014;-82
2022/03/13 09:05:07;;;;;;;8.98;4.20;;;;;;;;;;5012749;28;20018;-80
2022/03/13 09:07:32;;;;;;;10.13;4.35;;;;;;;;;;5014045;28;20037;-83
2022/03/13 09:09:58;;;;;;;7.60;4.10;;;;;;;;;;5014015;28;20041;-83
2022/03/13 09:12:23;;;;;;;11.70;4.28;;;;;;;;;;5015573;28;20030;-82
2022/03/13 09:14:48;;;;;;;11.90;4.80;;;;;;;;;;5013070;28;20058;-82
2022/03/13 09:17:15;;;;;;;10.13;4.50;;;;;;;;;;4995992;28;20018;-84
2022/03/13 09:19:41;;;;;;;7.93;4.47;;;;;;;;;;5014772;28;20022;-83
2022/03/13 09:22:06;;;;;;;10.35;5.00;;;;;;;;;;5014320;28;20010;-84
2022/03/13 09:24:31;;;;;;;9.77;4.55;;;;;;;;;;5012874;28;20029;-84
2022/03/13 09:26:57;;;;;;;9.40;4.72;;;;;;;;;;5019281;28;20010;-85
2022/03/13 09:29:22;;;;;;;8.25;4.75;;;;;;;;;;5023780;28;20023;-85
2022/03/13 09:31:48;;;;;;;9.10;4.40;;;;;;;;;;5019663;28;20022;-83
2022/03/13 09:34:13;;;;;;;9.07;4.50;;;;;;;;;;5012045;28;20488;-84
2022/03/13 09:36:42;;;;;;;12.52;4.78;;;;;;;;;;5011210;28;20027;-84
2022/03/13 09:39:07;;;;;;;8.35;4.43;;;;;;;;;;4999309;28;20114;-83
2022/03/13 09:41:32;;;;;;;9.55;4.43;;;;;;;;;;5010897;28;20022;-83
2022/03/13 09:43:58;;;;;;;10.80;4.60;;;;;;;;;;5008392;28;20014;-83
2022/03/13 09:46:23;;;;;;;10.20;4.90;;;;;;;;;;4991836;28;20488;-84
2022/03/13 09:48:50;;;;;;;8.65;4.40;;;;;;;;;;4993887;28;20478;-84
2022/03/13 09:51:15;;;;;;;7.72;4.15;;;;;;;;;;5008875;28;20018;-84
2022/03/13 09:53:41;;;;;;;9.82;4.50;;;;;;;;;;5003245;28;20014;-84
2022/03/13 09:56:06;;;;;;;12.52;5.30;;;;;;;;;;5008370;28;20038;-83
2022/03/13 09:58:32;;;;;;;9.60;4.65;;;;;;;;;;4982072;28;20109;-83
2022/03/13 10:00:57;;;;;;;10.23;5.53;;;;;;;;;;5002871;28;20026;-84
2022/03/13 10:03:23;;;;;;;8.60;4.65;;;;;;;;;;4986347;28;20401;-82
2022/03/13 10:05:49;;;;;;;9.35;4.30;;;;;;;;;;5003683;28;20022;-86
2022/03/13 10:08:15;;;;;;;8.43;4.47;;;;;;;;;;5008122;28;20026;-84
2022/03/13 10:10:45;;;;;;;8.25;4.38;;;;;;;;;;5008392;28;20078;-82
2022/03/13 10:13:10;;;;;;;12.20;5.22;;;;;;;;;;5009094;28;20080;-87
2022/03/13 10:15:43;;;;;;;10.52;5.20;;;;;;;;;;5002865;28;20509;-85
2022/03/13 10:18:27;;;;;;;9.45;4.65;;;;;;;;;;4996925;28;20461;-84
2022/03/13 10:20:53;;;;;;;7.95;4.47;;;;;;;;;;5007334;28;20018;-83
2022/03/13 10:23:22;;;;;;;8.60;3.92;;;;;;;;;;5010892;28;20018;-87
2022/03/13 10:25:51;;;;;;;8.02;4.70;;;;;;;;;;4989079;28;20022;-85
2022/03/13 10:28:28;;;;;;;8.35;4.55;;;;;;;;;;5013047;28;20038;-85
2022/03/13 10:30:59;;;;;;;9.57;5.10;;;;;;;;;;5007125;28;20096;-83
2022/03/13 10:33:26;;;;;;;8.93;5.53;;;;;;;;;;5005442;28;20033;-85
2022/03/13 10:36:05;;;;;;;9.95;4.85;;;;;;;;;;5002617;28;20093;-82
2022/03/13 10:38:32;;;;;;;11.27;5.25;;;;;;;;;;4982622;28;20041;-85
2022/03/13 10:40:58;;;;;;;9.15;4.97;;;;;;;;;;5004094;28;20014;-84
2022/03/13 10:43:26;;;;;;;10.57;4.88;;;;;;;;;;4986887;28;20477;-84
2022/03/13 10:45:53;;;;;;;9.80;4.75;;;;;;;;;;5005825;28;20113;-83
2022/03/13 10:48:29;;;;;;;10.05;5.43;;;;;;;;;;5007191;28;20021;-85
2022/03/13 10:50:55;;;;;;;8.35;4.82;;;;;;;;;;5004460;28;20022;-84
2022/03/13 10:53:21;;;;;;;9.00;5.20;;;;;;;;;;5004043;28;20014;-84
2022/03/13 10:56:07;;;;;;;8.88;4.43;;;;;;;;;;5012273;28;20033;-83
2022/03/13 10:58:35;;;;;;;9.98;4.78;;;;;;;;;;5007955;28;20018;-86
2022/03/13 11:01:07;;;;;;;10.18;5.18;;;;;;;;;;5002165;28;20062;-85
2022/03/13 11:03:33;;;;;;;9.60;5.00;;;;;;;;;;5007918;28;20018;-82
2022/03/13 11:05:59;;;;;;;10.25;5.35;;;;;;;;;;5005871;28;20025;-84
2022/03/13 11:08:26;;;;;;;9.63;5.00;;;;;;;;;;4988874;28;20030;-85
2022/03/13 11:10:52;;;;;;;12.10;5.00;;;;;;;;;;4997342;28;20481;-84
2022/03/13 11:13:20;;;;;;;8.65;4.97;;;;;;;;;;5009713;28;20024;-84
2022/03/13 11:15:46;;;;;;;;;;;;;;;;;;5005833;28;20030;-85
2022/03/13 11:18:14;;;;;;;9.80;5.38;;;;;;;;;;5000665;28;19909;-84
2022/03/13 11:20:39;;;;;;;9.80;5.27;;;;;;;;;;4999809;28;20090;-84
2022/03/13 11:23:05;;;;;;;10.30;5.80;;;;;;;;;;5009155;28;20651;-84
2022/03/13 11:25:30;;;;;;;9.77;4.93;;;;;;;;;;4989248;28;20027;-84
2022/03/13 11:27:57;;;;;;;10.65;5.30;;;;;;;;;;5007333;28;20022;-84
2022/03/13 11:30:34;;;;;;;10.13;5.55;;;;;;;;;;5003464;28;20221;-84
2022/03/13 11:33:02;;;;;;;8.93;4.85;;;;;;;;;;5000814;28;20033;-83
2022/03/13 11:35:30;;;;;;;10.10;5.28;;;;;;;;;;4995746;28;20049;-83
2022/03/13 11:38:04;;;;;;;9.27;5.10;;;;;;;;;;5010141;28;20079;-83
2022/03/13 11:40:31;;;;;;;12.35;5.07;;;;;;;;;;5005736;28;20033;-82
2022/03/13 11:43:16;;;;;;;9.57;5.20;;;;;;;;;;5002282;28;20032;-82
2022/03/13 11:45:51;;;;;;;8.25;4.93;;;;;;;;;;5007035;28;20042;-82
2022/03/13 11:48:19;;;;;;;10.98;5.03;;;;;;;;;;5000240;28;20098;-84
2022/03/13 11:50:54;;;;;;;9.40;5.28;;;;;;;;;;5006048;28;20089;-85
2022/03/13 11:53:24;;;;;;;8.30;5.07;;;;;;;;;;5000882;28;20116;-84
2022/03/13 11:56:10;;;;;;;7.53;4.63;;;;;;;;;;5014236;28;20022;-82
2022/03/13 11:58:42;;;;;;;8.15;5.10;;;;;;;;;;5001879;28;20097;-85
2022/03/13 12:01:08;;;;;;;8.80;4.55;;;;;;;;;;4992909;28;20023;-85
2022/03/13 12:03:34;;;;;;;11.15;5.10;;;;;;;;;;5017320;28;20532;-84
2022/03/13 12:06:00;;;;;;;6.95;4.72;;;;;;;;;;4986720;28;20042;-83
2022/03/13 12:08:45;;;;;;;8.77;4.13;;;;;;;;;;4990878;28;20053;-83
2022/03/13 12:11:29;;;;;;;11.95;5.18;;;;;;;;;;4993157;28;20121;-84
2022/03/13 12:13:55;;;;;;;9.60;3.97;;;;;;;;;;5013726;28;20026;-84
2022/03/13 12:16:21;;;;;;;6.35;4.20;;;;;;;;;;5003317;28;20085;-84
2022/03/13 12:18:56;;;;;;;8.23;4.38;;;;;;;;;;5011049;28;20018;-84
2022/03/13 12:21:22;;;;;;;8.07;4.25;;;;;;;;;;5000032;28;20465;-83
2022/03/13 12:23:48;;;;;;;9.40;4.60;;;;;;;;;;5002340;28;20026;-84
2022/03/13 12:26:27;;;;;;;9.95;4.20;;;;;;;;;;5001195;28;20275;-83
2022/03/13 12:28:56;;;;;;;8.48;4.68;;;;;;;;;;5006056;28;20048;-83
2022/03/13 12:31:21;;;;;;;9.60;4.65;;;;;;;;;;4983998;28;20024;-83
2022/03/13 12:33:48;;;;;;;13.63;7.57;;;;;;;;;;5001571;28;20493;-84
2022/03/13 12:36:14;;;;;;;6.55;4.05;;;;;;;;;;5006237;28;20022;-84
2022/03/13 12:38:43;;;;;;;18.98;9.20;;;;;;;;;;4999853;28;20033;-83
2022/03/13 12:41:09;;;;;;;14.02;5.63;;;;;;;;;;4985678;28;20084;-85
2022/03/13 12:43:49;;;;;;;19.27;9.43;;;;;;;;;;5014937;28;20030;-85
2022/03/13 12:46:17;;;;;;;14.90;7.60;;;;;;;;;;4985252;28;20113;-84
2022/03/13 12:48:49;;;;;;;9.15;5.50;;;;;;;;;;4993180;28;20474;-83
2022/03/13 12:51:35;;;;;;;12.25;6.00;;;;;;;;;;4981158;28;20645;-82
2022/03/13 12:54:04;;;;;;;6.57;4.28;;;;;;;;;;5014949;28;20029;-83
2022/03/13 12:56:33;;;;;;;7.85;4.07;;;;;;;;;;5010967;28;20023;-85
2022/03/13 12:58:58;;;;;;;8.25;4.95;;;;;;;;;;5011068;28;20054;-83
2022/03/13 13:01:23;;;;;;;7.60;4.38;;;;;;;;;;5013878;28;20022;-84
2022/03/13 13:03:49;;;;;;;7.10;4.18;;;;;;;;;;5011846;28;20025;-83
2022/03/13 13:06:26;;;;;;;6.47;4.07;;;;;;;;;;5004841;28;20037;-83
2022/03/13 13:08:52;;;;;;;9.80;4.38;;;;;;;;;;5005411;28;20509;-83
2022/03/13 13:11:31;;;;;;;10.57;4.60;;;;;;;;;;5011809;28;20026;-84
2022/03/13 13:13:57;;;;;;;9.93;5.13;;;;;;;;;;4985273;28;20260;-83
2022/03/13 13:16:26;;;;;;;9.98;5.05;;;;;;;;;;5003529;28;20025;-83
2022/03/13 13:18:51;;;;;;;7.05;4.22;;;;;;;;;;4988314;28;20481;-84
2022/03/13 13:21:16;;;;;;;10.93;4.40;;;;;;;;;;5000289;28;20080;-83
2022/03/13 13:23:42;;;;;;;7.00;4.32;;;;;;;;;;5004896;28;20098;-83
2022/03/13 13:26:07;;;;;;;10.17;4.60;;;;;;;;;;5010174;28;20061;-84
2022/03/13 13:28:32;;;;;;;6.13;3.80;;;;;;;;;;4991584;28;20290;-83
2022/03/13 13:30:57;;;;;;;10.82;4.43;;;;;;;;;;5007405;28;20259;-83
2022/03/13 13:33:28;;;;;;;5.93;3.90;;;;;;;;;;4986662;28;20049;-84
2022/03/13 13:35:54;;;;;;;17.15;5.10;;;;;;;;;;5004170;28;20027;-82
2022/03/13 13:38:21;;;;;;;6.47;4.40;;;;;;;;;;5004764;28;20022;-82
2022/03/13 13:40:47;;;;;;;8.88;4.93;;;;;;;;;;5011514;28;20030;-82
2022/03/13 13:43:32;;;;;;;8.75;4.10;;;;;;;;;;5009223;28;20164;-83
2022/03/13 13:46:05;;;;;;;7.80;3.90;;;;;;;;;;5006039;28;20070;-83
2022/03/13 13:48:34;;;;;;;7.47;4.10;;;;;;;;;;4983685;28;20034;-82
2022/03/13 13:51:20;;;;;;;8.73;4.18;;;;;;;;;;5002902;28;20034;-83
2022/03/13 13:53:48;;;;;;;5.78;3.42;;;;;;;;;;5008385;28;20112;-83
2022/03/13 13:56:14;;;;;;;6.75;4.22;;;;;;;;;;5010326;28;20041;-83
2022/03/13 13:58:39;;;;;;;7.15;4.10;;;;;;;;;;5013173;28;20030;-83
2022/03/13 14:01:22;;;;;;;9.13;4.53;;;;;;;;;;5007548;28;20608;-83
2022/03/13 14:03:48;;;;;;;8.95;4.72;;;;;;;;;;4994757;28;20786;-83
2022/03/13 14:06:13;;;;;;;6.15;3.60;;;;;;;;;;5017744;28;20053;-84
2022/03/13 14:08:38;;;;;;;6.95;4.20;;;;;;;;;;5013479;28;20022;-82
2022/03/13 14:11:03;;;;;;;9.65;5.15;;;;;;;;;;5012590;28;20035;-83
2022/03/13 14:13:30;;;;;;;7.93;4.20;;;;;;;;;;4993010;28;20018;-84
2022/03/13 14:15:55;;;;;;;10.27;4.40;;;;;;;;;;4994282;28;20022;-80
2022/03/13 14:18:20;;;;;;;6.28;3.88;;;;;;;;;;4993489;28;20512;-81
2022/03/13 14:20:45;;;;;;;8.38;4.30;;;;;;;;;;5008722;28;20030;-81
2022/03/13 14:23:11;;;;;;;6.63;4.30;;;;;;;;;;5006341;28;20018;-81
2022/03/13 14:25:36;;;;;;;7.97;3.80;;;;;;;;;;5008017;28;20262;-80
2022/03/13 14:28:01;;;;;;;12.50;4.07;;;;;;;;;;5007131;28;20053;-80
2022/03/13 14:30:27;;;;;;;6.30;3.90;;;;;;;;;;5000689;28;20053;-82
2022/03/13 14:32:52;;;;;;;6.90;4.50;;;;;;;;;;5009586;28;20029;-82
2022/03/13 14:35:18;;;;;;;8.90;4.40;;;;;;;;;;5002665;28;20109;-80
2022/03/13 14:37:43;;;;;;;6.97;4.47;;;;;;;;;;5009924;28;20356;-82
2022/03/13 14:40:09;;;;;;;7.03;4.18;;;;;;;;;;4986865;28;20069;-80
2022/03/13 14:42:34;;;;;;;8.57;3.80;;;;;;;;;;5006486;28;20389;-80
2022/03/13 14:45:00;;;;;;;7.43;4.75;;;;;;;;;;4990460;28;20037;-80
2022/03/13 14:47:25;;;;;;;9.60;4.15;;;;;;;;;;5006746;28;20030;-81
2022/03/13 14:49:50;;;;;;;6.97;4.10;;;;;;;;;;5010329;28;20021;-79
2022/03/13 14:52:15;;;;;;;7.55;3.80;;;;;;;;;;5005211;28;20091;-82
2022/03/13 14:54:41;;;;;;;5.45;3.60;;;;;;;;;;4987955;28;20038;-82
2022/03/13 14:57:08;;;;;;;7.53;4.47;;;;;;;;;;5009208;28;20424;-83
2022/03/13 14:59:34;;;;;;;7.47;4.22;;;;;;;;;;5010323;28;20014;-82
2022/03/13 15:01:59;;;;;;;7.72;4.60;;;;;;;;;;5010867;28;21200;-81
2022/03/13 15:04:24;;;;;;;9.95;4.40;;;;;;;;;;5018425;28;20085;-83
2022/03/13 15:06:50;;;;;;;7.80;4.30;;;;;;;;;;5013565;28;20485;-84
2022/03/13 15:09:15;;;;;;;8.10;4.32;;;;;;;;;;4992436;28;20283;-84
2022/03/13 15:11:41;;;;;;;7.57;4.50;;;;;;;;;;4999492;28;20433;-83
2022/03/13 15:14:07;;;;;;;8.57;4.88;;;;;;;;;;4990932;28;20360;-83
2022/03/13 15:16:32;;;;;;;6.78;4.15;;;;;;;;;;5009349;28;20025;-82
2022/03/13 15:18:57;;;;;;;10.03;4.40;;;;;;;;;;5013861;28;20026;-82
2022/03/13 15:21:23;;;;;;;7.07;4.30;;;;;;;;;;4993270;28;20275;-86
2022/03/13 15:23:48;;;;;;;10.23;5.05;;;;;;;;;;4997361;28;20318;-83
2022/03/13 15:26:13;;;;;;;7.63;4.00;;;;;;;;;;4997704;28;20026;-83
2022/03/13 15:28:39;;;;;;;6.65;4.00;;;;;;;;;;5022273;28;20126;-84
2022/03/13 15:31:04;;;;;;;9.40;5.30;;;;;;;;;;5014288;28;20022;-83
2022/03/13 15:33:29;;;;;;;7.65;5.00;;;;;;;;;;5012339;28;20448;-84
2022/03/13 15:35:56;;;;;;;8.23;4.70;;;;;;;;;;5020190;28;20037;-83
2022/03/13 15:38:21;;;;;;;8.63;4.38;;;;;;;;;;4990987;28;20030;-83
2022/03/13 15:40:47;;;;;;;7.72;4.63;;;;;;;;;;4997643;28;20116;-84
2022/03/13 15:43:12;;;;;;;9.93;5.20;;;;;;;;;;5005145;28;20105;-82
2022/03/13 15:45:38;;;;;;;19.30;7.47;;;;;;;;;;5014813;28;20029;-83
2022/03/13 15:48:04;;;;;;;7.40;4.45;;;;;;;;;;5010113;28;20026;-83
2022/03/13 15:50:30;;;;;;;8.60;4.82;;;;;;;;;;5011663;28;20029;-82
2022/03/13 15:52:56;;;;;;;9.82;4.82;;;;;;;;;;4995542;28;20018;-83
2022/03/13 15:55:21;;;;;;;8.13;4.40;;;;;;;;;;5013543;28;20030;-83
2022/03/13 15:57:46;;;;;;;8.52;4.55;;;;;;;;;;4997627;28;20041;-83
2022/03/13 16:00:12;;;;;;;12.55;5.00;;;;;;;;;;5001492;28;20097;-84
2022/03/13 16:02:38;;;;;;;9.75;4.45;;;;;;;;;;5014004;28;20014;-84
2022/03/13 16:05:06;;;;;;;7.30;4.57;;;;;;;;;;5005359;28;20511;-84
2022/03/13 16:07:31;;;;;;;12.68;5.82;;;;;;;;;;5018767;28;20014;-86
2022/03/13 16:09:56;;;;;;;8.13;4.70;;;;;;;;;;5008162;28;20077;-85
2022/03/13 16:12:26;;;;;;;9.23;4.90;;;;;;;;;;5018180;28;20030;-84
2022/03/13 16:14:53;;;;;;;8.70;4.90;;;;;;;;;;5002274;28;20291;-85
2022/03/13 16:17:18;;;;;;;12.35;4.97;;;;;;;;;;4992669;28;20146;-86
2022/03/13 16:19:49;;;;;;;10.45;4.65;;;;;;;;;;5012365;28;20025;-86
2022/03/13 16:22:15;;;;;;;9.52;4.97;;;;;;;;;;4987083;28;20121;-87
2022/03/13 16:24:41;;;;;;;9.23;4.50;;;;;;;;;;4993628;28;20022;-86
2022/03/13 16:27:06;;;;;;;8.55;4.80;;;;;;;;;;5007844;28;20081;-87
2022/03/13 16:29:32;;;;;;;8.18;4.78;;;;;;;;;;5000024;28;20405;-87
2022/03/13 16:31:57;;;;;;;10.30;5.05;;;;;;;;;;4995198;28;20077;-85
2022/03/13 16:34:22;;;;;;;8.43;4.50;;;;;;;;;;5013750;28;20057;-85
2022/03/13 16:36:47;;;;;;;8.63;5.22;;;;;;;;;;5007239;28;20383;-85
2022/03/13 16:39:13;;;;;;;11.30;4.93;;;;;;;;;;5008696;28;20110;-84
2022/03/13 16:41:38;;;;;;;10.38;5.20;;;;;;;;;;5010619;28;20022;-86
2022/03/13 16:44:04;;;;;;;10.98;4.75;;;;;;;;;;5017240;28;20022;-88
2022/03/13 16:46:29;;;;;;;9.65;5.50;;;;;;;;;;4989804;28;20038;-87
2022/03/13 16:48:54;;;;;;;10.27;5.50;;;;;;;;;;4995119;28;20034;-86
2022/03/13 16:51:19;;;;;;;8.52;4.50;;;;;;;;;;5009911;28;20027;-86
2022/03/13 16:53:45;;;;;;;10.57;4.60;;;;;;;;;;4994449;28;20061;-85
2022/03/13 16:56:10;;;;;;;8.95;4.60;;;;;;;;;;5009571;28;20283;-86
2022/03/13 16:58:35;;;;;;;8.35;4.72;;;;;;;;;;4992592;28;20053;-87
2022/03/13 17:01:03;;;;;;;8.10;4.63;;;;;;;;;;5011566;28;20018;-85
2022/03/13 17:03:28;;;;;;;8.38;4.72;;;;;;;;;;5009985;28;20022;-87
2022/03/13 17:05:54;;;;;;;8.77;4.55;;;;;;;;;;5000067;28;20034;-85
2022/03/13 17:08:19;;;;;;;8.43;5.00;;;;;;;;;;5017017;28;20080;-85
2022/03/13 17:10:45;;;;;;;8.30;4.97;;;;;;;;;;5014941;28;20041;-86
2022/03/13 17:13:10;;;;;;;9.32;5.05;;;;;;;;;;5017068;28;20022;-84
2022/03/13 17:15:35;;;;;;;10.63;5.33;;;;;;;;;;4995929;28;20022;-83
2022/03/13 17:18:04;;;;;;;8.40;4.68;;;;;;;;;;5002253;28;20287;-84
2022/03/13 17:20:29;;;;;;;11.15;5.45;;;;;;;;;;5012490;28;20026;-83
2022/03/13 17:22:55;;;;;;;12.27;5.13;;;;;;;;;;5011387;28;20062;-85
2022/03/13 17:25:20;;;;;;;11.90;5.03;;;;;;;;;;5014977;28;20060;-84
2022/03/13 17:27:47;;;;;;;10.32;5.30;;;;;;;;;;5011434;28;20442;-85
2022/03/13 17:30:13;;;;;;;10.70;5.10;;;;;;;;;;4998081;28;20026;-83
2022/03/13 17:32:39;;;;;;;10.07;4.60;;;;;;;;;;5008097;28;20025;-85
2022/03/13 17:35:04;;;;;;;13.07;4.70;;;;;;;;;;5012658;28;20025;-86
2022/03/13 17:37:29;;;;;;;10.20;4.57;;;;;;;;;;4990239;28;20114;-85
2022/03/13 17:39:55;;;;;;;11.98;5.22;;;;;;;;;;5016783;28;20014;-85
2022/03/13 17:42:20;;;;;;;10.63;4.97;;;;;;;;;;5002900;28;20521;-83
2022/03/13 17:44:46;;;;;;;11.25;5.32;;;;;;;;;;5005261;28;20461;-85
2022/03/13 17:47:11;;;;;;;15.07;6.53;;;;;;;;;;4987258;28;20029;-86
2022/03/13 17:49:37;;;;;;;13.20;6.13;;;;;;;;;;5010977;28;20018;-86
2022/03/13 17:52:02;;;;;;;16.45;6.93;;;;;;;;;;5015188;28;20472;-86
2022/03/13 17:54:27;;;;;;;27.13;12.52;;;;;;;;;;4997257;28;20032;-79
2022/03/13 17:56:54;;;;;;;14.60;8.35;;;;;;;;;;5003351;28;20378;-80
2022/03/13 17:59:20;;;;;;;34.40;21.70;;;;;;;;;;4981626;28;20105;-78
2022/03/13 18:01:46;;;;;;;55.38;34.25;;;;;;;;;;5005669;28;20169;-80
2022/03/13 18:04:11;;;;;;;55.13;36.42;;;;;;;;;;4980380;28;20072;-78
2022/03/13 18:06:38;;;;;;;44.80;29.65;;;;;;;;;;4985506;28;20038;-80
2022/03/13 18:09:04;;;;;;;44.80;30.70;;;;;;;;;;5002240;28;20034;-79
2022/03/13 18:11:29;;;;;;;37.72;26.85;;;;;;;;;;5004813;28;20088;-80
2022/03/13 18:13:54;;;;;;;32.03;22.23;;;;;;;;;;4995077;28;20033;-78
2022/03/13 18:16:19;;;;;;;28.33;15.77;;;;;;;;;;5012023;28;20025;-79
2022/03/13 18:18:45;;;;;;;23.85;12.57;;;;;;;;;;4996806;28;20029;-81
2022/03/13 18:21:10;;;;;;;17.63;9.98;;;;;;;;;;4996691;28;20022;-80
2022/03/13 18:23:36;;;;;;;12.32;7.90;;;;;;;;;;5002595;28;20014;-79
2022/03/13 18:26:01;;;;;;;13.45;7.70;;;;;;;;;;5003672;28;20065;-82
2022/03/13 18:28:26;;;;;;;14.60;7.43;;;;;;;;;;4995850;28;20045;-81
2022/03/13 18:30:52;;;;;;;11.82;6.88;;;;;;;;;;5000115;28;20017;-80
2022/03/13 18:33:20;;;;;;;15.57;7.63;;;;;;;;;;4999404;28;20478;-79
2022/03/13 18:35:45;;;;;;;12.68;6.00;;;;;;;;;;4983912;28;20026;-80